Time;durP1;ratioP1;P1;durP2;ratioP2;P2;SDS_P1;SDS_P2;PMS_P1;PMS_P2;Temp;Humidity;BMP_temperature;BMP_pressure;BME280_temperature;BME280_humidity;BME280_pressure;Samples;Min_cycle;Max_cycle;Signal;HPM_P1;HPM_P2
2023/10/31 00:01:43;;;;;;;7.07;2.33;;;12.90;99.90;;;;;;5044007;28;20589;-86
2023/10/31 00:04:30;;;;;;;3.67;2.20;;;12.90;99.90;;;;;;5040450;28;20417;-86
2023/10/31 00:07:16;;;;;;;2.80;1.87;;;12.90;99.90;;;;;;5044450;28;20514;-86
2023/10/31 00:10:02;;;;;;;3.70;1.57;;;13.00;99.90;;;;;;5040290;28;20952;-86
2023/10/31 00:12:47;;;;;;;2.27;1.60;;;13.00;99.90;;;;;;5041333;28;20550;-86
2023/10/31 00:15:33;;;;;;;1.97;1.33;;;13.10;99.90;;;;;;5046251;28;20447;-87
2023/10/31 00:18:19;;;;;;;3.40;1.77;;;13.10;99.90;;;;;;5049847;28;20397;-86
2023/10/31 00:21:06;;;;;;;5.70;1.30;;;13.00;99.90;;;;;;5048418;28;20475;-86
2023/10/31 00:23:52;;;;;;;2.73;1.20;;;13.00;99.90;;;;;;5046797;28;20428;-86
2023/10/31 00:26:38;;;;;;;1.87;1.10;;;12.90;99.90;;;;;;5048749;28;20453;-87
2023/10/31 00:29:23;;;;;;;2.50;1.20;;;12.90;99.90;;;;;;5044485;28;20452;-86
2023/10/31 00:32:09;;;;;;;2.07;1.20;;;12.90;99.90;;;;;;5045153;28;20450;-86
2023/10/31 00:34:54;;;;;;;6.73;1.23;;;12.80;99.90;;;;;;5053415;28;20416;-86
2023/10/31 00:37:42;;;;;;;2.43;1.10;;;12.80;99.90;;;;;;5049158;28;20454;-87
2023/10/31 00:40:27;;;;;;;2.10;1.20;;;12.70;99.90;;;;;;5048426;28;20467;-86
2023/10/31 00:43:13;;;;;;;1.90;1.30;;;12.70;99.90;;;;;;5047865;28;20450;-86
2023/10/31 00:45:59;;;;;;;2.47;1.07;;;12.70;99.90;;;;;;5049360;28;20457;-86
2023/10/31 00:48:45;;;;;;;3.50;0.90;;;12.70;99.90;;;;;;5051690;28;20935;-86
2023/10/31 00:51:30;;;;;;;1.83;1.00;;;12.60;99.90;;;;;;5049584;28;20441;-86
2023/10/31 00:54:17;;;;;;;1.60;0.70;;;12.60;99.90;;;;;;5054172;28;20457;-85
2023/10/31 00:57:03;;;;;;;3.83;1.00;;;12.50;99.90;;;;;;5052889;28;20447;-86
2023/10/31 00:59:49;;;;;;;2.07;0.80;;;12.50;99.90;;;;;;5053706;28;20482;-87
2023/10/31 01:02:34;;;;;;;3.50;1.10;;;12.40;99.90;;;;;;5045848;28;20446;-86
2023/10/31 01:05:20;;;;;;;1.37;0.67;;;12.40;99.90;;;;;;5046705;28;20450;-86
2023/10/31 01:08:06;;;;;;;2.10;1.03;;;12.40;99.90;;;;;;5049362;28;20546;-86
2023/10/31 01:10:53;;;;;;;1.50;0.80;;;12.40;99.90;;;;;;5045961;28;20458;-86
2023/10/31 01:13:39;;;;;;;1.73;0.83;;;12.30;99.90;;;;;;5050586;28;20464;-85
2023/10/31 01:16:24;;;;;;;2.27;0.90;;;12.30;99.90;;;;;;5050630;28;20446;-86
2023/10/31 01:19:10;;;;;;;2.63;1.00;;;12.20;99.90;;;;;;5042837;28;20430;-86
2023/10/31 01:21:56;;;;;;;2.27;0.90;;;12.20;99.90;;;;;;5042437;28;20456;-87
2023/10/31 01:24:41;;;;;;;7.13;1.00;;;12.20;99.90;;;;;;5051559;28;20473;-86
2023/10/31 01:27:29;;;;;;;1.60;0.80;;;12.20;99.90;;;;;;5050249;28;20479;-86
2023/10/31 01:30:15;;;;;;;4.23;0.90;;;12.20;99.90;;;;;;5047134;28;21345;-86
2023/10/31 01:33:00;;;;;;;3.10;1.13;;;12.20;99.90;;;;;;5044983;28;20582;-86
2023/10/31 01:35:46;;;;;;;1.60;0.80;;;12.10;99.90;;;;;;5046141;28;20929;-86
2023/10/31 01:38:32;;;;;;;2.00;1.13;;;12.00;99.90;;;;;;5048628;28;21064;-86
2023/10/31 01:41:17;;;;;;;3.13;1.47;;;12.00;99.90;;;;;;5048942;28;20469;-85
2023/10/31 01:44:05;;;;;;;4.33;0.97;;;11.90;99.90;;;;;;5050421;28;20446;-85
2023/10/31 01:46:50;;;;;;;2.57;1.13;;;11.90;99.90;;;;;;5042585;28;20945;-86
2023/10/31 01:49:37;;;;;;;4.20;1.13;;;11.80;99.90;;;;;;5050385;28;20433;-86
2023/10/31 01:52:22;;;;;;;2.00;1.10;;;11.70;99.90;;;;;;5047399;28;21041;-86
2023/10/31 01:55:10;;;;;;;2.43;1.10;;;11.70;99.90;;;;;;5047580;28;20436;-86
2023/10/31 01:57:56;;;;;;;2.30;0.97;;;11.60;99.90;;;;;;5050540;28;20873;-86
2023/10/31 02:00:44;;;;;;;7.40;1.10;;;11.60;99.90;;;;;;5045017;28;20601;-86
2023/10/31 02:03:30;;;;;;;3.47;0.90;;;11.60;99.90;;;;;;5047964;28;20459;-86
2023/10/31 02:06:15;;;;;;;1.90;1.20;;;11.50;99.90;;;;;;5046067;28;20516;-85
2023/10/31 02:09:01;;;;;;;1.70;1.10;;;11.60;99.90;;;;;;5049962;28;20465;-86
2023/10/31 02:11:47;;;;;;;1.80;1.00;;;11.60;99.90;;;;;;5048014;28;20435;-86
2023/10/31 02:14:32;;;;;;;3.90;1.10;;;11.60;99.90;;;;;;5051323;28;20447;-86
2023/10/31 02:17:19;;;;;;;2.63;1.10;;;11.70;99.90;;;;;;5050678;28;20473;-86
2023/10/31 02:20:06;;;;;;;1.97;0.97;;;11.90;99.90;;;;;;5049529;28;20530;-86
2023/10/31 02:22:53;;;;;;;4.37;1.13;;;12.00;99.90;;;;;;5046744;28;20447;-86
2023/10/31 02:25:39;;;;;;;1.80;1.23;;;11.90;99.90;;;;;;5047919;28;20568;-86
2023/10/31 02:28:27;;;;;;;2.23;1.07;;;11.90;99.90;;;;;;5049906;28;21004;-86
2023/10/31 02:31:16;;;;;;;3.30;0.97;;;11.80;99.90;;;;;;5047598;28;20542;-88
2023/10/31 02:34:01;;;;;;;1.80;1.00;;;11.80;99.90;;;;;;5046529;28;20433;-86
2023/10/31 02:36:47;;;;;;;2.60;1.50;;;11.70;99.90;;;;;;5051790;28;20442;-86
2023/10/31 02:39:34;;;;;;;5.83;1.03;;;11.80;99.90;;;;;;5049246;28;21035;-86
2023/10/31 02:42:20;;;;;;;8.10;1.43;;;11.80;99.90;;;;;;5049922;28;20528;-86
2023/10/31 02:45:07;;;;;;;2.00;1.10;;;11.80;99.90;;;;;;5046973;28;20454;-86
2023/10/31 02:47:52;;;;;;;2.33;1.33;;;11.80;99.90;;;;;;5050133;28;20570;-85
2023/10/31 02:50:39;;;;;;;1.80;0.90;;;11.80;99.90;;;;;;5057373;23;20510;-70
2023/10/31 02:53:24;;;;;;;2.37;1.10;;;11.80;99.90;;;;;;5041733;28;21135;-71
2023/10/31 02:56:11;;;;;;;5.93;1.30;;;11.70;99.90;;;;;;5049276;28;20428;-69
2023/10/31 02:58:56;;;;;;;4.43;0.90;;;11.80;99.90;;;;;;5044138;28;20968;-71
2023/10/31 03:01:42;;;;;;;10.17;1.50;;;11.80;99.90;;;;;;5062067;23;20700;-76
2023/10/31 03:04:28;;;;;;;2.40;1.20;;;11.80;99.90;;;;;;5048824;28;20466;-76
2023/10/31 03:07:13;;;;;;;2.87;1.10;;;11.90;99.90;;;;;;5040988;28;20525;-76
2023/10/31 03:09:59;;;;;;;6.70;0.80;;;11.90;99.90;;;;;;5044322;28;20989;-75
2023/10/31 03:12:46;;;;;;;2.90;1.20;;;11.80;99.90;;;;;;5027227;28;20543;-76
2023/10/31 03:15:32;;;;;;;1.50;0.77;;;11.70;99.90;;;;;;5013582;28;20473;-75
2023/10/31 03:18:17;;;;;;;11.10;1.40;;;11.70;99.90;;;;;;5014214;28;20443;-76
2023/10/31 03:21:03;;;;;;;2.00;1.00;;;11.70;99.90;;;;;;5019488;28;21286;-76
2023/10/31 03:23:52;;;;;;;2.63;1.17;;;11.70;99.90;;;;;;5025451;28;20928;-76
2023/10/31 03:26:39;;;;;;;2.07;0.90;;;11.70;99.90;;;;;;5016890;28;20461;-76
2023/10/31 03:29:26;;;;;;;3.97;1.20;;;11.70;99.90;;;;;;5014713;28;20551;-76
2023/10/31 03:32:13;;;;;;;4.07;1.10;;;11.70;99.90;;;;;;5011746;28;20596;-73
2023/10/31 03:34:58;;;;;;;2.10;1.13;;;11.70;99.90;;;;;;5011519;28;20584;-76
2023/10/31 03:37:44;;;;;;;2.23;1.40;;;11.70;99.90;;;;;;5017654;28;20455;-76
2023/10/31 03:40:30;;;;;;;1.80;1.33;;;11.70;99.90;;;;;;5015350;28;21011;-76
2023/10/31 03:43:16;;;;;;;2.27;0.90;;;11.70;99.90;;;;;;5014561;28;20604;-75
2023/10/31 03:46:03;;;;;;;1.73;1.07;;;11.70;99.90;;;;;;5017510;28;20481;-76
2023/10/31 03:48:49;;;;;;;3.60;1.70;;;11.70;99.90;;;;;;5015156;28;20554;-76
2023/10/31 03:51:35;;;;;;;4.57;1.40;;;11.70;99.90;;;;;;5019933;28;20526;-76
2023/10/31 03:54:20;;;;;;;2.73;1.57;;;11.70;99.90;;;;;;5017807;28;20580;-75
2023/10/31 03:57:06;;;;;;;2.33;1.10;;;11.70;99.90;;;;;;5019588;28;20490;-75
2023/10/31 03:59:52;;;;;;;3.73;1.47;;;11.70;99.90;;;;;;5015392;28;20430;-76
2023/10/31 04:02:40;;;;;;;3.10;1.67;;;11.70;99.90;;;;;;5016055;28;20483;-75
2023/10/31 04:05:26;;;;;;;2.07;1.20;;;11.60;99.90;;;;;;5023355;28;20485;-76
2023/10/31 04:08:11;;;;;;;3.00;1.20;;;11.70;99.90;;;;;;5018807;28;20526;-75
2023/10/31 04:10:57;;;;;;;2.40;1.20;;;11.60;99.90;;;;;;5015702;28;20508;-76
2023/10/31 04:13:43;;;;;;;5.90;1.87;;;11.70;99.90;;;;;;5022674;28;20817;-75
2023/10/31 04:16:28;;;;;;;2.70;1.70;;;11.70;99.90;;;;;;5015910;28;20578;-75
2023/10/31 04:19:15;;;;;;;4.43;1.40;;;11.70;99.90;;;;;;5013801;28;20956;-75
2023/10/31 04:22:01;;;;;;;8.37;1.60;;;11.70;99.90;;;;;;5022280;28;20470;-75
2023/10/31 04:24:47;;;;;;;7.73;1.63;;;11.80;99.90;;;;;;5016646;28;20427;-75
2023/10/31 04:27:33;;;;;;;2.80;1.20;;;11.70;99.90;;;;;;5017828;28;20478;-75
2023/10/31 04:30:18;;;;;;;3.23;1.50;;;11.60;99.90;;;;;;5014659;28;20439;-76
2023/10/31 04:33:04;;;;;;;1.73;1.03;;;11.60;99.90;;;;;;5013503;28;20480;-76
2023/10/31 04:35:51;;;;;;;2.53;1.27;;;11.60;99.90;;;;;;5026210;28;20448;-76
2023/10/31 04:38:38;;;;;;;5.00;1.30;;;11.70;99.90;;;;;;5015247;28;20503;-76
2023/10/31 04:41:24;;;;;;;2.83;1.40;;;11.60;99.90;;;;;;5011645;28;20458;-76
2023/10/31 04:44:09;;;;;;;4.90;2.10;;;11.60;99.90;;;;;;5010027;28;20529;-76
2023/10/31 04:46:55;;;;;;;2.00;1.30;;;11.50;99.90;;;;;;5016501;28;20971;-75
2023/10/31 04:49:41;;;;;;;5.80;1.80;;;11.50;99.90;;;;;;5014516;28;20796;-76
2023/10/31 04:52:28;;;;;;;4.50;1.53;;;11.40;99.90;;;;;;5011930;28;20463;-76
2023/10/31 04:55:13;;;;;;;2.37;1.30;;;11.40;99.90;;;;;;5017907;28;20452;-74
2023/10/31 04:57:59;;;;;;;3.30;1.40;;;11.50;99.90;;;;;;5018886;28;20568;-76
2023/10/31 05:00:45;;;;;;;2.70;1.30;;;11.50;99.90;;;;;;5010961;28;20448;-74
2023/10/31 05:03:30;;;;;;;3.73;1.50;;;11.50;99.90;;;;;;5012577;28;20852;-76
2023/10/31 05:06:21;;;;;;;2.47;1.17;;;11.50;99.90;;;;;;5014548;28;20452;-73
2023/10/31 05:09:07;;;;;;;2.73;1.50;;;11.50;99.90;;;;;;5021638;28;20799;-76
2023/10/31 05:11:53;;;;;;;2.90;1.47;;;11.50;99.90;;;;;;5009617;28;20516;-74
2023/10/31 05:14:40;;;;;;;2.37;1.37;;;11.50;99.90;;;;;;5013818;28;20460;-76
2023/10/31 05:17:26;;;;;;;3.50;1.20;;;11.40;99.90;;;;;;5017416;28;20496;-75
2023/10/31 05:20:12;;;;;;;3.20;1.43;;;11.50;99.90;;;;;;5016118;28;20498;-76
2023/10/31 05:22:58;;;;;;;3.00;1.20;;;11.40;99.90;;;;;;5023040;28;20438;-76
2023/10/31 05:25:45;;;;;;;3.10;1.43;;;11.50;99.90;;;;;;5019106;28;20542;-76
2023/10/31 05:28:30;;;;;;;2.20;1.50;;;11.40;99.90;;;;;;5019228;28;20465;-76
2023/10/31 05:31:17;;;;;;;4.80;1.43;;;11.50;99.90;;;;;;5016489;28;20530;-76
2023/10/31 05:34:04;;;;;;;3.50;1.93;;;11.50;99.90;;;;;;5022266;28;20425;-76
2023/10/31 05:36:50;;;;;;;2.97;1.40;;;11.50;99.90;;;;;;5013367;28;20475;-76
2023/10/31 05:39:36;;;;;;;7.17;1.50;;;11.40;99.90;;;;;;5019980;28;20488;-76
2023/10/31 05:42:24;;;;;;;4.57;2.23;;;11.50;99.90;;;;;;5015308;28;20470;-76
2023/10/31 05:45:10;;;;;;;3.47;1.63;;;11.50;99.90;;;;;;5015685;28;20824;-76
2023/10/31 05:47:56;;;;;;;6.37;1.80;;;11.50;99.90;;;;;;5013151;28;20612;-76
2023/10/31 05:50:43;;;;;;;4.53;1.60;;;11.60;99.90;;;;;;5019343;28;20467;-76
2023/10/31 05:53:28;;;;;;;2.97;1.23;;;11.60;99.90;;;;;;5013355;28;20548;-76
2023/10/31 05:56:15;;;;;;;1.87;1.27;;;11.60;99.90;;;;;;5018811;28;20586;-76
2023/10/31 05:59:02;;;;;;;3.93;1.30;;;11.60;99.90;;;;;;5017365;28;20429;-75
2023/10/31 06:01:50;;;;;;;2.40;1.40;;;11.50;99.90;;;;;;5019456;28;20480;-75
2023/10/31 06:04:35;;;;;;;4.33;1.27;;;11.50;99.90;;;;;;5016023;28;20444;-76
2023/10/31 06:07:21;;;;;;;4.70;1.13;;;11.50;99.90;;;;;;5018138;28;20575;-74
2023/10/31 06:10:08;;;;;;;5.30;1.23;;;11.40;99.90;;;;;;5017028;28;20444;-76
2023/10/31 06:12:53;;;;;;;3.90;1.60;;;11.30;99.90;;;;;;5020491;28;20468;-75
2023/10/31 06:15:41;;;;;;;3.70;1.27;;;11.30;99.90;;;;;;5015419;28;20507;-75
2023/10/31 06:18:26;;;;;;;2.70;1.50;;;11.30;99.90;;;;;;5012979;28;20975;-75
2023/10/31 06:21:12;;;;;;;6.80;1.37;;;11.30;99.90;;;;;;5018699;28;20508;-76
2023/10/31 06:23:58;;;;;;;4.00;0.97;;;11.30;99.90;;;;;;5012808;28;20966;-75
2023/10/31 06:26:43;;;;;;;3.77;1.10;;;11.30;99.90;;;;;;5012335;28;20518;-75
2023/10/31 06:29:29;;;;;;;5.00;1.30;;;11.40;99.90;;;;;;5012419;28;20474;-74
2023/10/31 06:32:16;;;;;;;3.23;1.20;;;11.40;99.90;;;;;;5014985;28;20471;-75
2023/10/31 06:35:02;;;;;;;3.53;1.37;;;11.40;99.90;;;;;;5022415;28;20438;-75
2023/10/31 06:37:48;;;;;;;2.00;1.20;;;11.40;99.90;;;;;;5015134;28;20490;-75
2023/10/31 06:40:33;;;;;;;2.73;1.20;;;11.40;99.90;;;;;;5014454;28;20506;-76
2023/10/31 06:43:19;;;;;;;4.27;1.33;;;11.40;99.90;;;;;;5024205;28;21141;-75
2023/10/31 06:46:06;;;;;;;4.47;1.73;;;11.40;99.90;;;;;;5020446;28;20935;-76
2023/10/31 06:48:53;;;;;;;2.57;1.50;;;11.40;99.90;;;;;;5021201;28;20724;-76
2023/10/31 06:51:39;;;;;;;2.57;1.17;;;11.40;99.90;;;;;;5011515;28;20463;-76
2023/10/31 06:54:25;;;;;;;2.17;1.40;;;11.40;99.90;;;;;;5020112;28;20505;-76
2023/10/31 06:57:10;;;;;;;2.37;1.33;;;11.50;99.90;;;;;;5017308;28;20484;-76
2023/10/31 06:59:56;;;;;;;6.13;1.37;;;11.50;99.90;;;;;;5015255;28;20440;-76
2023/10/31 07:02:42;;;;;;;5.73;1.50;;;11.50;99.90;;;;;;5015250;28;20491;-74
2023/10/31 07:05:29;;;;;;;2.40;1.30;;;11.50;99.90;;;;;;5010963;28;20422;-76
2023/10/31 07:08:14;;;;;;;8.70;1.83;;;11.40;99.90;;;;;;5018448;28;20505;-75
2023/10/31 07:11:00;;;;;;;2.70;1.57;;;11.30;99.90;;;;;;5019400;28;20517;-76
2023/10/31 07:13:46;;;;;;;5.07;1.93;;;11.30;99.90;;;;;;5012558;28;20447;-76
2023/10/31 07:16:33;;;;;;;3.27;1.40;;;11.40;99.90;;;;;;5017677;28;20434;-75
2023/10/31 07:19:19;;;;;;;3.20;1.33;;;11.30;99.90;;;;;;5025001;28;20846;-75
2023/10/31 07:22:05;;;;;;;4.00;1.73;;;11.30;99.90;;;;;;5017442;28;20438;-76
2023/10/31 07:24:51;;;;;;;2.77;1.50;;;11.40;99.90;;;;;;5013981;28;20456;-76
2023/10/31 07:27:37;;;;;;;2.07;1.50;;;11.40;99.90;;;;;;5012275;28;20539;-74
2023/10/31 07:30:22;;;;;;;4.90;1.50;;;11.40;99.90;;;;;;5022249;28;21308;-76
2023/10/31 07:33:08;;;;;;;3.50;1.33;;;11.40;99.90;;;;;;5016100;28;20997;-75
2023/10/31 07:35:54;;;;;;;5.57;1.70;;;11.40;99.90;;;;;;5016411;28;20449;-76
2023/10/31 07:38:40;;;;;;;4.37;1.93;;;11.40;99.90;;;;;;5012405;28;20417;-75
2023/10/31 07:41:26;;;;;;;5.70;1.50;;;11.50;99.90;;;;;;5016112;28;20433;-73
2023/10/31 07:44:12;;;;;;;18.40;2.83;;;11.60;99.90;;;;;;5013899;28;20466;-76
2023/10/31 07:46:58;;;;;;;2.90;1.60;;;11.70;99.90;;;;;;5014881;28;20474;-75
2023/10/31 07:49:44;;;;;;;11.77;1.77;;;11.60;99.90;;;;;;5015876;28;20845;-76
2023/10/31 07:52:29;;;;;;;5.00;1.90;;;11.70;99.90;;;;;;5016784;28;20526;-75
2023/10/31 07:55:16;;;;;;;2.23;1.50;;;11.70;99.90;;;;;;5019264;28;21060;-75
2023/10/31 07:58:02;;;;;;;3.30;1.77;;;11.70;99.90;;;;;;5019551;28;20455;-76
2023/10/31 08:00:48;;;;;;;2.03;1.40;;;11.70;99.90;;;;;;5013249;28;20846;-75
2023/10/31 08:03:33;;;;;;;6.13;1.73;;;11.70;99.90;;;;;;5012443;28;20611;-74
2023/10/31 08:06:19;;;;;;;3.40;1.50;;;11.80;99.90;;;;;;5017526;28;20480;-75
2023/10/31 08:09:05;;;;;;;3.80;2.23;;;11.80;99.90;;;;;;5016268;28;20550;-75
2023/10/31 08:11:52;;;;;;;3.13;1.40;;;11.70;99.90;;;;;;5012012;28;20442;-75
2023/10/31 08:14:37;;;;;;;2.67;1.47;;;11.70;99.90;;;;;;5015867;28;20800;-75
2023/10/31 08:17:23;;;;;;;4.37;2.30;;;11.80;99.90;;;;;;5012264;28;20460;-75
2023/10/31 08:20:10;;;;;;;4.70;1.70;;;11.70;99.90;;;;;;5021417;28;20413;-75
2023/10/31 08:22:56;;;;;;;4.70;1.93;;;11.70;99.90;;;;;;5016756;28;20463;-75
2023/10/31 08:25:41;;;;;;;6.30;2.37;;;11.70;99.90;;;;;;5020066;28;20450;-75
2023/10/31 08:28:28;;;;;;;6.23;2.00;;;11.70;99.90;;;;;;5012845;28;20485;-75
2023/10/31 08:31:14;;;;;;;11.00;1.73;;;11.80;99.90;;;;;;5015377;28;20502;-75
2023/10/31 08:33:59;;;;;;;4.33;1.97;;;11.80;99.90;;;;;;5021679;28;20448;-75
2023/10/31 08:36:45;;;;;;;4.13;2.13;;;11.80;99.90;;;;;;5019820;28;20549;-75
2023/10/31 08:39:31;;;;;;;5.60;2.80;;;11.80;99.90;;;;;;5014114;28;20427;-75
2023/10/31 08:42:17;;;;;;;2.37;1.40;;;11.80;99.90;;;;;;5009573;28;20830;-74
2023/10/31 08:45:05;;;;;;;3.00;1.80;;;11.80;99.90;;;;;;5011089;28;20441;-75
2023/10/31 08:47:51;;;;;;;5.37;2.03;;;11.80;99.90;;;;;;5015241;28;20430;-75
2023/10/31 08:50:37;;;;;;;5.20;2.03;;;11.80;99.90;;;;;;5011952;28;20515;-76
2023/10/31 08:53:23;;;;;;;3.80;1.80;;;11.80;99.90;;;;;;5016329;28;20471;-75
2023/10/31 08:56:09;;;;;;;3.80;1.97;;;11.90;99.90;;;;;;5019733;28;20455;-75
2023/10/31 08:58:55;;;;;;;4.20;1.87;;;11.90;99.90;;;;;;5016257;28;20558;-76
2023/10/31 09:01:42;;;;;;;2.90;2.20;;;11.90;99.90;;;;;;5016226;28;20614;-76
2023/10/31 09:04:27;;;;;;;4.37;2.17;;;12.00;99.90;;;;;;5016579;28;20413;-74
2023/10/31 09:07:13;;;;;;;5.03;2.00;;;12.00;99.90;;;;;;5015940;28;20486;-75
2023/10/31 09:09:59;;;;;;;7.37;2.30;;;12.10;99.90;;;;;;5015782;28;20471;-73
2023/10/31 09:12:46;;;;;;;2.10;1.30;;;12.10;99.90;;;;;;5027112;28;20453;-74
2023/10/31 09:15:31;;;;;;;4.57;1.40;;;12.20;99.90;;;;;;5025453;28;20427;-74
2023/10/31 09:18:18;;;;;;;7.83;1.73;;;12.10;99.90;;;;;;5024525;28;20410;-74
2023/10/31 09:21:04;;;;;;;2.20;1.30;;;12.10;99.90;;;;;;5023859;28;20951;-74
2023/10/31 09:23:50;;;;;;;4.20;1.40;;;12.10;99.90;;;;;;5029165;28;20411;-73
2023/10/31 09:26:36;;;;;;;5.90;1.63;;;12.20;99.90;;;;;;5026136;28;20436;-73
2023/10/31 09:29:21;;;;;;;5.73;1.50;;;12.20;99.90;;;;;;5027527;28;20469;-74
2023/10/31 09:32:08;;;;;;;2.23;1.30;;;12.20;99.90;;;;;;5023341;28;20523;-73
2023/10/31 09:34:55;;;;;;;5.07;2.00;;;12.20;99.90;;;;;;5028716;28;20898;-74
2023/10/31 09:37:40;;;;;;;3.83;1.63;;;12.20;99.90;;;;;;5028172;28;20487;-73
2023/10/31 09:40:26;;;;;;;7.53;1.60;;;12.20;99.90;;;;;;5022201;28;20571;-74
2023/10/31 09:43:11;;;;;;;2.83;1.20;;;12.20;99.90;;;;;;5024693;28;20929;-73
2023/10/31 09:45:58;;;;;;;3.40;1.47;;;12.20;99.90;;;;;;5027970;28;20399;-74
2023/10/31 09:48:44;;;;;;;4.47;2.07;;;12.10;99.90;;;;;;5028095;28;20440;-73
2023/10/31 09:51:32;;;;;;;5.80;1.60;;;12.20;99.90;;;;;;5025463;28;20436;-73
2023/10/31 09:54:18;;;;;;;4.00;2.13;;;12.20;99.90;;;;;;5024527;28;20432;-74
2023/10/31 09:57:04;;;;;;;3.93;1.40;;;12.40;99.90;;;;;;5023165;28;20435;-74
2023/10/31 09:59:49;;;;;;;4.63;1.50;;;12.60;99.90;;;;;;5026255;28;20400;-74
2023/10/31 10:02:35;;;;;;;2.30;1.30;;;12.70;99.90;;;;;;5026636;28;20443;-74
2023/10/31 10:05:24;;;;;;;4.93;1.30;;;12.80;99.90;;;;;;5023084;28;20463;-73
2023/10/31 10:08:11;;;;;;;5.10;1.93;;;13.10;99.90;;;;;;5023101;28;20446;-74
2023/10/31 10:10:56;;;;;;;6.97;1.87;;;13.40;99.90;;;;;;5022262;28;20857;-74
2023/10/31 10:13:42;;;;;;;3.30;1.60;;;13.50;99.90;;;;;;5027242;28;20398;-73
2023/10/31 10:16:32;;;;;;;4.00;2.30;;;13.60;99.90;;;;;;5028199;28;20768;-74
2023/10/31 10:19:20;;;;;;;4.53;1.60;;;13.70;99.90;;;;;;5023361;28;20924;-74
2023/10/31 10:22:06;;;;;;;8.20;1.43;;;13.80;99.90;;;;;;5024815;28;20534;-74
2023/10/31 10:24:53;;;;;;;6.00;2.33;;;13.80;99.90;;;;;;5025593;28;20981;-74
2023/10/31 10:27:38;;;;;;;2.53;1.40;;;13.90;99.90;;;;;;5023837;28;20808;-74
2023/10/31 10:30:24;;;;;;;4.40;1.50;;;14.00;99.90;;;;;;5025337;28;20462;-74
2023/10/31 10:33:10;;;;;;;6.40;1.63;;;14.10;99.90;;;;;;5022251;28;20455;-74
2023/10/31 10:35:56;;;;;;;4.20;1.47;;;14.10;99.90;;;;;;5026529;28;20440;-74
2023/10/31 10:38:46;;;;;;;6.40;1.60;;;14.20;99.90;;;;;;5024098;28;20432;-73
2023/10/31 10:41:36;;;;;;;4.97;1.70;;;14.10;99.90;;;;;;5018623;28;20452;-74
2023/10/31 10:44:29;;;;;;;5.77;2.40;;;14.10;99.90;;;;;;5022561;28;20431;-74
2023/10/31 10:47:15;;;;;;;2.33;1.40;;;13.90;99.90;;;;;;5022979;28;21010;-74
2023/10/31 10:50:02;;;;;;;7.20;1.73;;;13.90;99.90;;;;;;5025975;28;20875;-74
2023/10/31 10:52:55;;;;;;;5.40;1.20;;;13.80;99.90;;;;;;5023752;28;20449;-74
2023/10/31 10:55:47;;;;;;;4.80;1.27;;;13.70;99.90;;;;;;5025863;28;20432;-74
2023/10/31 10:58:39;;;;;;;5.27;1.53;;;13.70;99.90;;;;;;5022676;28;20447;-73
2023/10/31 11:01:25;;;;;;;4.30;1.60;;;13.60;99.90;;;;;;5021870;28;20954;-74
2023/10/31 11:04:11;;;;;;;3.40;1.97;;;13.50;99.90;;;;;;5021300;28;20432;-74
2023/10/31 11:06:57;;;;;;;2.87;1.60;;;13.50;99.90;;;;;;5024643;28;20399;-74
2023/10/31 11:09:43;;;;;;;11.63;2.10;;;13.40;99.90;;;;;;5021932;28;20989;-73
2023/10/31 11:12:31;;;;;;;4.17;2.00;;;13.30;99.90;;;;;;5022015;28;20429;-74
2023/10/31 11:15:19;;;;;;;5.30;1.83;;;13.30;99.90;;;;;;5022387;28;20447;-74
2023/10/31 11:18:06;;;;;;;8.50;1.70;;;13.30;99.90;;;;;;5020607;28;20786;-74
2023/10/31 11:20:52;;;;;;;9.77;1.80;;;13.40;99.90;;;;;;5023578;28;20425;-74
2023/10/31 11:23:39;;;;;;;5.03;1.77;;;13.40;99.90;;;;;;5021717;28;20439;-74
2023/10/31 11:26:27;;;;;;;3.23;1.30;;;13.60;99.90;;;;;;5021595;28;20457;-74
2023/10/31 11:29:13;;;;;;;7.70;1.83;;;13.70;99.90;;;;;;5020636;28;20843;-74
2023/10/31 11:32:00;;;;;;;6.60;2.07;;;13.80;99.90;;;;;;5024070;28;20436;-74
2023/10/31 11:34:46;;;;;;;10.23;1.83;;;14.00;99.90;;;;;;5021663;28;20396;-74
2023/10/31 11:37:35;;;;;;;6.30;1.90;;;13.90;99.90;;;;;;5020866;28;20482;-74
2023/10/31 11:40:23;;;;;;;4.83;1.33;;;13.90;99.90;;;;;;5017230;28;20388;-74
2023/10/31 11:43:10;;;;;;;8.00;1.77;;;13.80;99.90;;;;;;5019998;28;20786;-74
2023/10/31 11:46:00;;;;;;;13.60;1.83;;;13.80;99.90;;;;;;5024324;28;20985;-74
2023/10/31 11:48:51;;;;;;;5.87;1.87;;;13.80;99.90;;;;;;5023544;28;21003;-74
2023/10/31 11:51:36;;;;;;;3.07;1.63;;;13.90;99.90;;;;;;5020486;28;20449;-75
2023/10/31 11:54:22;;;;;;;4.77;1.30;;;13.90;99.90;;;;;;5020838;28;20406;-74
2023/10/31 11:57:08;;;;;;;7.17;1.23;;;14.10;99.90;;;;;;5017633;28;20421;-74
2023/10/31 11:59:54;;;;;;;4.80;1.77;;;14.20;99.90;;;;;;5022546;28;20429;-74
2023/10/31 12:02:40;;;;;;;9.57;1.27;;;14.40;99.90;;;;;;5018289;28;20967;-74
2023/10/31 12:05:28;;;;;;;4.20;1.73;;;14.50;99.90;;;;;;5020079;28;20434;-74
2023/10/31 12:08:13;;;;;;;8.83;1.73;;;14.60;99.90;;;;;;5020166;28;20402;-74
2023/10/31 12:11:05;;;;;;;10.43;2.60;;;14.70;99.90;;;;;;5023502;28;20796;-74
2023/10/31 12:13:56;;;;;;;6.67;1.30;;;14.60;99.90;;;;;;5023732;28;20417;-74
2023/10/31 12:16:42;;;;;;;8.67;1.93;;;14.60;99.90;;;;;;5015783;28;20569;-74
2023/10/31 12:19:27;;;;;;;3.87;1.60;;;14.50;99.90;;;;;;5021617;28;20873;-74
2023/10/31 12:22:16;;;;;;;10.47;1.80;;;14.50;99.90;;;;;;5018855;28;20525;-74
2023/10/31 12:25:02;;;;;;;5.97;2.27;;;14.40;99.90;;;;;;5023283;28;20427;-74
2023/10/31 12:27:49;;;;;;;9.17;1.70;;;14.20;99.90;;;;;;5020602;28;20428;-74
2023/10/31 12:30:45;;;;;;;8.40;1.30;;;14.10;99.90;;;;;;5022850;28;20466;-74
2023/10/31 12:33:31;;;;;;;6.00;1.13;;;14.10;99.90;;;;;;5023541;28;20823;-74
2023/10/31 12:36:17;;;;;;;4.53;1.30;;;14.10;99.90;;;;;;5024491;28;20885;-74
2023/10/31 12:39:06;;;;;;;8.70;1.50;;;14.20;99.90;;;;;;5025837;28;20517;-74
2023/10/31 12:41:52;;;;;;;7.20;2.90;;;14.20;99.90;;;;;;5026151;28;20412;-74
2023/10/31 12:44:38;;;;;;;3.93;1.40;;;14.30;99.90;;;;;;5023810;28;20452;-74
2023/10/31 12:47:23;;;;;;;3.87;1.53;;;14.40;99.90;;;;;;5023144;28;20411;-74
2023/10/31 12:50:10;;;;;;;5.33;1.60;;;14.50;99.90;;;;;;5022177;28;21006;-74
2023/10/31 12:52:59;;;;;;;3.30;1.40;;;14.60;99.90;;;;;;5026065;28;20515;-74
2023/10/31 12:55:46;;;;;;;3.70;1.40;;;14.60;99.90;;;;;;5025692;28;20472;-74
2023/10/31 12:58:31;;;;;;;4.70;1.73;;;14.60;99.90;;;;;;5024003;28;20998;-74
2023/10/31 13:01:19;;;;;;;6.70;1.77;;;14.50;99.90;;;;;;5023487;28;20939;-73
2023/10/31 13:04:05;;;;;;;4.00;1.30;;;14.50;99.90;;;;;;5025141;28;20415;-74
2023/10/31 13:06:57;;;;;;;4.90;1.57;;;14.40;99.90;;;;;;5025893;28;20425;-74
2023/10/31 13:09:42;;;;;;;8.07;1.60;;;14.30;99.90;;;;;;5022775;28;20799;-73
2023/10/31 13:12:31;;;;;;;3.67;1.63;;;14.40;99.90;;;;;;5018246;28;20444;-74
2023/10/31 13:15:18;;;;;;;4.13;1.47;;;14.40;99.90;;;;;;5014831;28;20425;-74
2023/10/31 13:18:04;;;;;;;4.13;1.07;;;14.40;99.90;;;;;;5013698;28;20446;-74
2023/10/31 13:20:49;;;;;;;4.43;1.03;;;14.40;99.90;;;;;;5017303;28;20444;-75
2023/10/31 13:23:37;;;;;;;2.60;1.20;;;14.40;99.90;;;;;;5016816;28;20438;-74
2023/10/31 13:26:23;;;;;;;5.60;1.90;;;14.40;99.90;;;;;;5019392;28;21071;-74
2023/10/31 13:29:11;;;;;;;5.30;1.70;;;14.40;99.90;;;;;;5016790;28;20536;-74
2023/10/31 13:31:56;;;;;;;6.03;1.37;;;14.40;99.90;;;;;;5020547;28;20454;-74
2023/10/31 13:34:42;;;;;;;5.47;1.70;;;14.40;99.90;;;;;;5019074;28;20440;-75
2023/10/31 13:37:28;;;;;;;3.87;1.47;;;14.30;99.90;;;;;;5015086;28;20414;-74
2023/10/31 13:40:14;;;;;;;3.53;1.13;;;14.30;99.90;;;;;;5017595;28;20540;-74
2023/10/31 13:42:59;;;;;;;7.37;1.30;;;14.30;99.90;;;;;;5017449;28;20578;-75
2023/10/31 13:45:46;;;;;;;4.40;1.50;;;14.30;99.90;;;;;;5018371;28;20486;-75
2023/10/31 13:48:32;;;;;;;2.90;1.27;;;14.30;99.90;;;;;;5016525;28;20417;-74
2023/10/31 13:51:19;;;;;;;9.00;1.30;;;14.20;99.90;;;;;;5019942;28;20475;-75
2023/10/31 13:54:04;;;;;;;3.77;1.90;;;14.20;99.90;;;;;;5014304;28;20468;-74
2023/10/31 13:56:50;;;;;;;4.43;1.37;;;14.10;99.90;;;;;;5020284;28;20431;-74
2023/10/31 13:59:36;;;;;;;3.90;1.27;;;14.20;99.90;;;;;;5017685;28;20460;-74
2023/10/31 14:02:23;;;;;;;3.23;1.23;;;14.20;99.90;;;;;;5015905;28;20472;-74
2023/10/31 14:05:09;;;;;;;4.17;1.43;;;14.10;99.90;;;;;;5020655;28;20797;-74
2023/10/31 14:07:54;;;;;;;7.70;2.80;;;14.00;99.90;;;;;;5020305;28;20460;-74
2023/10/31 14:10:45;;;;;;;5.07;1.80;;;13.90;99.90;;;;;;5016343;28;21088;-74
2023/10/31 14:13:30;;;;;;;4.27;1.30;;;14.00;99.90;;;;;;5017656;28;20450;-74
2023/10/31 14:16:16;;;;;;;9.20;2.17;;;13.90;99.90;;;;;;5019617;28;20482;-74
2023/10/31 14:19:03;;;;;;;3.50;1.40;;;14.00;99.90;;;;;;5014757;28;20435;-74
2023/10/31 14:21:49;;;;;;;3.00;1.37;;;14.00;99.90;;;;;;5024278;28;21110;-75
2023/10/31 14:24:35;;;;;;;4.27;1.70;;;13.90;99.90;;;;;;5017449;28;21000;-74